Time;durP1;ratioP1;P1;durP2;ratioP2;P2;SDS_P1;SDS_P2;PMS_P1;PMS_P2;Temp;Humidity;BMP_temperature;BMP_pressure;BME280_temperature;BME280_humidity;BME280_pressure;Samples;Min_cycle;Max_cycle;Signal;HPM_P1;HPM_P2
2022/03/16 00:00:21;;;;;;;2.40;1.40;;;19.50;44.40;;;;;;5093681;28;20493;-61
2022/03/16 00:02:47;;;;;;;1.90;1.35;;;19.50;44.40;;;;;;5094042;28;20021;-61
2022/03/16 00:05:13;;;;;;;1.80;1.27;;;19.50;44.40;;;;;;5075975;28;20099;-61
2022/03/16 00:07:40;;;;;;;2.22;1.27;;;19.50;44.40;;;;;;5093858;28;20081;-61
2022/03/16 00:10:07;;;;;;;1.58;1.33;;;19.50;44.40;;;;;;5076110;28;20119;-61
2022/03/16 00:12:37;;;;;;;1.55;1.23;;;19.50;44.40;;;;;;5094205;28;20024;-61
2022/03/16 00:15:03;;;;;;;2.13;1.33;;;19.50;44.40;;;;;;5093433;28;20141;-61
2022/03/16 00:17:29;;;;;;;1.65;1.30;;;19.50;44.40;;;;;;5093197;28;20508;-61
2022/03/16 00:19:56;;;;;;;1.95;1.52;;;19.50;44.40;;;;;;5093621;28;20020;-61
2022/03/16 00:22:23;;;;;;;1.27;1.17;;;19.50;44.40;;;;;;5075852;28;20048;-61
2022/03/16 00:24:49;;;;;;;1.48;1.23;;;19.50;44.50;;;;;;5075255;28;20128;-61
2022/03/16 00:27:15;;;;;;;2.08;1.45;;;19.40;44.40;;;;;;5093511;28;20526;-61
2022/03/16 00:29:41;;;;;;;1.90;1.20;;;19.40;44.40;;;;;;5093607;28;20024;-61
2022/03/16 00:32:07;;;;;;;1.40;1.30;;;19.50;44.40;;;;;;5093595;28;20016;-61
2022/03/16 00:34:32;;;;;;;2.97;1.67;;;19.50;44.40;;;;;;5093787;28;20027;-61
2022/03/16 00:36:59;;;;;;;4.10;1.50;;;19.50;44.50;;;;;;5076175;28;20020;-61
2022/03/16 00:39:24;;;;;;;1.73;1.42;;;19.40;44.40;;;;;;5093755;28;20076;-61
2022/03/16 00:41:50;;;;;;;2.70;1.67;;;19.40;44.40;;;;;;5093583;28;20016;-61
2022/03/16 00:44:16;;;;;;;1.83;1.42;;;19.40;44.40;;;;;;5093720;28;20027;-61
2022/03/16 00:46:43;;;;;;;1.83;1.60;;;19.40;44.40;;;;;;5093441;28;20382;-61
2022/03/16 00:49:08;;;;;;;2.72;1.45;;;19.40;44.40;;;;;;5093179;28;20016;-61
2022/03/16 00:51:35;;;;;;;3.47;1.50;;;19.40;44.50;;;;;;5092908;28;20383;-61
2022/03/16 00:54:00;;;;;;;2.50;1.77;;;19.40;44.40;;;;;;5092940;28;20024;-61
2022/03/16 00:56:26;;;;;;;2.10;1.52;;;19.40;44.40;;;;;;5092936;28;20103;-61
2022/03/16 00:58:52;;;;;;;1.88;1.60;;;19.40;44.50;;;;;;5093093;28;20020;-61
2022/03/16 01:01:19;;;;;;;1.92;1.55;;;19.40;44.50;;;;;;5074906;28;20489;-61
2022/03/16 01:03:44;;;;;;;2.47;1.55;;;19.40;44.50;;;;;;5074859;28;20099;-61
2022/03/16 01:06:15;;;;;;;2.40;1.60;;;19.40;44.50;;;;;;5096460;28;20482;-61
2022/03/16 01:08:42;;;;;;;2.35;1.40;;;19.40;44.50;;;;;;5097266;28;20016;-61
2022/03/16 01:11:08;;;;;;;2.70;1.80;;;19.40;45.10;;;;;;5096869;28;20489;-61
2022/03/16 01:13:34;;;;;;;3.33;1.83;;;19.40;44.50;;;;;;5097250;28;20107;-61
2022/03/16 01:16:00;;;;;;;1.60;1.35;;;19.40;44.50;;;;;;5097275;28;20012;-61
2022/03/16 01:18:27;;;;;;;1.58;1.30;;;19.30;44.40;;;;;;5096722;28;20042;-61
2022/03/16 01:20:52;;;;;;;2.25;1.63;;;19.30;44.50;;;;;;5096819;28;20028;-61
2022/03/16 01:23:19;;;;;;;1.60;1.48;;;19.30;44.50;;;;;;5097060;28;20031;-61
2022/03/16 01:25:45;;;;;;;2.13;1.83;;;19.30;44.50;;;;;;5062059;28;20013;-61
2022/03/16 01:28:10;;;;;;;2.47;1.80;;;19.30;44.50;;;;;;5078629;28;20520;-61
2022/03/16 01:30:36;;;;;;;1.80;1.60;;;19.30;44.50;;;;;;5096934;28;20096;-61
2022/03/16 01:33:03;;;;;;;2.20;1.58;;;19.30;44.50;;;;;;5096483;28;20028;-62
2022/03/16 01:35:29;;;;;;;2.13;1.70;;;19.20;44.50;;;;;;5096740;28;20047;-61
2022/03/16 01:37:55;;;;;;;3.13;1.42;;;19.30;44.50;;;;;;5096708;28;20036;-61
2022/03/16 01:40:21;;;;;;;3.08;1.92;;;19.30;44.50;;;;;;5096490;28;20105;-60
2022/03/16 01:42:49;;;;;;;4.07;1.95;;;19.30;44.50;;;;;;5078392;28;20026;-60
2022/03/16 01:45:15;;;;;;;1.60;1.50;;;19.20;44.50;;;;;;5096638;28;20047;-61
2022/03/16 01:47:41;;;;;;;2.65;1.85;;;19.20;44.50;;;;;;5096257;28;20557;-61
2022/03/16 01:50:08;;;;;;;2.60;1.85;;;19.30;44.50;;;;;;5096569;28;20025;-61
2022/03/16 01:52:34;;;;;;;2.67;1.92;;;19.30;44.50;;;;;;5096322;28;20032;-61
2022/03/16 01:55:04;;;;;;;2.78;1.70;;;19.20;44.50;;;;;;5096407;28;20008;-61
2022/03/16 01:57:33;;;;;;;3.83;2.17;;;19.20;44.50;;;;;;5095998;28;20024;-60
2022/03/16 02:00:00;;;;;;;2.10;1.77;;;19.20;44.50;;;;;;5078376;28;20017;-60
2022/03/16 02:02:25;;;;;;;2.30;1.83;;;19.20;44.50;;;;;;5096327;28;20020;-61
2022/03/16 02:04:51;;;;;;;2.85;1.90;;;19.20;44.50;;;;;;5095869;28;20024;-60
2022/03/16 02:07:17;;;;;;;2.15;1.60;;;19.20;44.50;;;;;;5096129;28;20065;-61
2022/03/16 02:09:44;;;;;;;3.42;2.10;;;19.20;44.50;;;;;;5096019;28;20015;-60
2022/03/16 02:12:13;;;;;;;3.20;1.98;;;19.20;44.50;;;;;;5095991;28;20024;-61
2022/03/16 02:14:38;;;;;;;1.98;1.75;;;19.20;44.60;;;;;;5095725;28;20020;-61
2022/03/16 02:17:07;;;;;;;2.38;1.90;;;19.20;44.60;;;;;;5095412;28;20036;-60
2022/03/16 02:19:34;;;;;;;2.20;1.95;;;19.20;44.60;;;;;;5078364;28;20047;-60
2022/03/16 02:22:01;;;;;;;3.10;1.92;;;19.20;44.60;;;;;;5095783;28;20013;-61
2022/03/16 02:24:29;;;;;;;2.30;1.77;;;19.20;44.60;;;;;;5077573;28;20020;-61
2022/03/16 02:26:58;;;;;;;3.58;2.10;;;19.20;44.60;;;;;;5095500;28;20488;-61
2022/03/16 02:29:25;;;;;;;1.90;1.70;;;19.20;44.60;;;;;;5095842;28;20012;-61
2022/03/16 02:31:50;;;;;;;2.22;1.77;;;19.10;44.50;;;;;;5077531;28;20024;-61
2022/03/16 02:34:17;;;;;;;3.17;2.10;;;19.20;44.60;;;;;;5077369;28;20501;-60
2022/03/16 02:36:43;;;;;;;2.80;1.88;;;19.10;44.60;;;;;;5095566;28;20031;-61
2022/03/16 02:39:09;;;;;;;2.25;1.63;;;19.10;44.50;;;;;;5077302;28;20020;-60
2022/03/16 02:41:36;;;;;;;2.75;1.70;;;19.10;44.50;;;;;;5095461;28;20020;-60
2022/03/16 02:44:02;;;;;;;3.05;2.00;;;19.10;44.60;;;;;;5077552;28;20024;-61
2022/03/16 02:46:28;;;;;;;2.92;2.00;;;19.10;44.60;;;;;;5095129;28;20471;-60
2022/03/16 02:48:54;;;;;;;2.40;1.88;;;19.10;44.60;;;;;;5077198;28;20024;-60
2022/03/16 02:51:20;;;;;;;2.28;1.80;;;19.10;44.60;;;;;;5096064;28;20016;-60
2022/03/16 02:53:46;;;;;;;1.95;1.73;;;19.10;44.60;;;;;;5095858;28;20047;-60
2022/03/16 02:56:12;;;;;;;2.97;1.83;;;19.10;44.60;;;;;;5095579;28;20466;-60
2022/03/16 02:58:37;;;;;;;2.83;1.85;;;19.00;44.60;;;;;;5095200;28;20066;-60
2022/03/16 03:01:03;;;;;;;2.95;1.90;;;19.10;44.60;;;;;;5094809;28;20462;-60
2022/03/16 03:03:29;;;;;;;2.70;1.77;;;19.00;44.60;;;;;;5094832;28;20077;-60
2022/03/16 03:05:55;;;;;;;2.30;1.80;;;19.00;44.60;;;;;;5094846;28;20081;-60
2022/03/16 03:08:21;;;;;;;2.63;2.30;;;19.10;44.60;;;;;;5077152;28;20137;-60
2022/03/16 03:10:48;;;;;;;2.53;1.98;;;19.00;44.60;;;;;;5077017;28;20053;-59
2022/03/16 03:13:14;;;;;;;3.25;1.90;;;19.10;44.60;;;;;;5077254;28;20363;-60
2022/03/16 03:15:41;;;;;;;2.00;1.80;;;19.00;44.60;;;;;;5094551;28;20018;-61
2022/03/16 03:18:07;;;;;;;3.55;2.28;;;19.00;44.60;;;;;;5094469;28;20112;-61
2022/03/16 03:20:33;;;;;;;2.90;2.17;;;19.00;44.60;;;;;;5094746;28;20028;-61
2022/03/16 03:22:59;;;;;;;2.10;1.70;;;19.00;44.60;;;;;;5076365;28;20494;-61
2022/03/16 03:25:25;;;;;;;4.07;2.15;;;19.00;44.60;;;;;;5094348;28;20023;-60
2022/03/16 03:27:51;;;;;;;2.15;1.60;;;19.00;44.60;;;;;;5093746;28;20469;-60
2022/03/16 03:30:17;;;;;;;2.33;1.88;;;19.00;44.60;;;;;;5076599;28;20020;-60
2022/03/16 03:32:43;;;;;;;2.78;1.83;;;19.00;44.60;;;;;;5076196;28;20032;-61
2022/03/16 03:35:10;;;;;;;2.38;1.90;;;19.00;44.60;;;;;;5095005;28;20008;-61
2022/03/16 03:37:36;;;;;;;2.78;1.80;;;19.00;44.60;;;;;;5094341;28;20008;-60
2022/03/16 03:40:02;;;;;;;4.50;1.90;;;19.00;44.60;;;;;;5094180;28;20486;-61
2022/03/16 03:42:28;;;;;;;2.22;1.75;;;19.00;44.60;;;;;;5094381;28;20021;-60
2022/03/16 03:44:54;;;;;;;2.33;1.90;;;19.00;44.60;;;;;;5094101;28;20020;-60
2022/03/16 03:47:20;;;;;;;2.70;1.90;;;19.00;44.60;;;;;;5075764;28;20443;-60
2022/03/16 03:49:46;;;;;;;3.70;2.25;;;19.00;44.60;;;;;;5093835;28;20527;-61
2022/03/16 03:52:12;;;;;;;2.90;2.17;;;18.90;44.50;;;;;;5075699;28;20028;-61
2022/03/16 03:54:39;;;;;;;4.70;1.90;;;18.90;44.50;;;;;;5075786;28;20028;-61
2022/03/16 03:57:05;;;;;;;2.30;1.98;;;18.90;44.60;;;;;;5093725;28;20466;-60
2022/03/16 03:59:31;;;;;;;2.67;1.90;;;18.90;44.60;;;;;;5094037;28;20012;-61
2022/03/16 04:01:57;;;;;;;2.47;1.80;;;18.90;44.50;;;;;;5093991;28;20021;-61
2022/03/16 04:04:24;;;;;;;3.00;2.00;;;18.90;44.50;;;;;;5094409;28;20020;-61
2022/03/16 04:06:49;;;;;;;2.75;1.90;;;18.90;44.50;;;;;;5094043;28;20411;-61
2022/03/16 04:09:15;;;;;;;2.45;2.03;;;18.90;44.50;;;;;;5058916;28;20107;-61
2022/03/16 04:11:41;;;;;;;2.67;2.17;;;18.90;44.50;;;;;;5093961;28;20016;-61
2022/03/16 04:14:08;;;;;;;2.88;2.10;;;18.90;44.50;;;;;;5094214;28;20023;-61
2022/03/16 04:16:33;;;;;;;3.00;2.10;;;18.90;44.50;;;;;;5075828;28;20052;-61
2022/03/16 04:19:00;;;;;;;2.60;1.98;;;18.90;44.50;;;;;;5093783;28;20500;-61
2022/03/16 04:21:27;;;;;;;3.13;2.22;;;18.90;44.50;;;;;;5093727;28;20024;-61
2022/03/16 04:23:54;;;;;;;3.30;2.03;;;18.90;44.50;;;;;;5093461;28;20020;-60
2022/03/16 04:26:19;;;;;;;2.88;1.77;;;18.90;44.50;;;;;;5075793;28;20023;-59
2022/03/16 04:28:45;;;;;;;2.72;2.08;;;18.90;44.50;;;;;;5093232;28;20363;-61
2022/03/16 04:31:12;;;;;;;3.72;2.13;;;18.90;44.50;;;;;;5093168;28;20031;-61
2022/03/16 04:33:38;;;;;;;2.65;2.20;;;18.90;44.50;;;;;;5075502;28;20034;-61
2022/03/16 04:36:05;;;;;;;2.20;1.73;;;18.80;44.50;;;;;;5075191;28;20445;-61
2022/03/16 04:38:31;;;;;;;4.72;1.88;;;18.80;44.40;;;;;;5093072;28;20081;-61
2022/03/16 04:41:00;;;;;;;2.47;1.92;;;18.90;44.50;;;;;;5092771;28;20039;-61
2022/03/16 04:43:26;;;;;;;3.22;2.10;;;18.80;44.50;;;;;;5075633;28;20016;-61
2022/03/16 04:45:53;;;;;;;2.60;1.88;;;18.80;44.50;;;;;;5075111;28;20020;-61
2022/03/16 04:48:19;;;;;;;2.53;2.13;;;18.80;44.40;;;;;;5093516;28;20073;-61
2022/03/16 04:50:45;;;;;;;1.83;1.67;;;18.90;44.40;;;;;;5075575;28;20016;-61
2022/03/16 04:53:10;;;;;;;2.97;2.10;;;19.00;44.20;;;;;;5075493;28;20603;-61
2022/03/16 04:55:37;;;;;;;2.35;1.70;;;19.10;43.90;;;;;;5093340;28;20020;-61
2022/03/16 04:58:08;;;;;;;3.63;1.95;;;19.20;43.80;;;;;;5093167;28;20024;-61
2022/03/16 05:00:35;;;;;;;2.55;2.05;;;19.30;43.60;;;;;;5093240;28;20467;-61
2022/03/16 05:03:01;;;;;;;2.25;2.03;;;19.30;43.40;;;;;;5093329;28;20016;-60
2022/03/16 05:05:28;;;;;;;2.03;1.80;;;19.40;43.30;;;;;;5075275;28;20434;-61
2022/03/16 05:07:54;;;;;;;3.63;2.03;;;19.50;43.00;;;;;;5075742;28;20024;-61
2022/03/16 05:10:20;;;;;;;2.58;2.10;;;19.60;42.90;;;;;;5093026;28;20107;-61
2022/03/16 05:12:46;;;;;;;2.45;1.60;;;19.80;42.60;;;;;;5092859;28;20510;-61
2022/03/16 05:15:16;;;;;;;2.90;1.88;;;19.90;42.40;;;;;;5093118;28;20043;-61
2022/03/16 05:17:43;;;;;;;2.00;1.80;;;20.00;42.20;;;;;;5092750;28;20062;-61
2022/03/16 05:20:09;;;;;;;2.22;1.45;;;20.10;42.00;;;;;;5075127;28;20028;-61
2022/03/16 05:22:45;;;;;;;2.65;1.77;;;20.20;41.80;;;;;;5092881;28;20035;-61
2022/03/16 05:25:12;;;;;;;2.13;1.77;;;20.30;41.60;;;;;;5092554;28;20385;-61
2022/03/16 05:27:38;;;;;;;2.13;1.70;;;20.40;41.40;;;;;;5074508;28;20470;-61
2022/03/16 05:30:05;;;;;;;2.90;1.90;;;20.50;41.10;;;;;;5074875;28;20019;-61
2022/03/16 05:32:32;;;;;;;2.05;1.85;;;20.60;40.90;;;;;;5092422;28;20394;-61
2022/03/16 05:34:58;;;;;;;2.25;2.00;;;20.70;40.80;;;;;;5092871;28;20033;-61
2022/03/16 05:37:24;;;;;;;2.85;2.15;;;20.80;40.70;;;;;;5092574;28;20479;-61
2022/03/16 05:39:50;;;;;;;1.92;1.63;;;20.90;40.40;;;;;;5092570;28;20142;-61
2022/03/16 05:42:16;;;;;;;2.88;1.77;;;21.00;40.20;;;;;;5092723;28;20017;-61
2022/03/16 05:44:42;;;;;;;2.03;1.55;;;21.10;40.00;;;;;;5092547;28;20505;-61
2022/03/16 05:47:09;;;;;;;2.97;1.75;;;21.20;39.80;;;;;;5092702;28;20093;-61
2022/03/16 05:49:35;;;;;;;2.35;1.58;;;21.30;39.60;;;;;;5092731;28;20109;-61
2022/03/16 05:52:01;;;;;;;1.98;1.70;;;21.40;39.60;;;;;;5077481;28;20104;-61
2022/03/16 05:54:27;;;;;;;2.15;1.75;;;21.40;39.40;;;;;;5096397;28;20020;-61
2022/03/16 05:56:55;;;;;;;2.50;1.60;;;21.50;39.30;;;;;;5096201;28;20022;-61
2022/03/16 05:59:21;;;;;;;2.42;1.95;;;21.60;39.10;;;;;;5096048;28;20013;-61
2022/03/16 06:01:47;;;;;;;1.75;1.63;;;21.70;39.00;;;;;;5096145;28;20020;-61
2022/03/16 06:04:12;;;;;;;2.83;1.80;;;21.80;38.90;;;;;;5096356;28;20482;-61
2022/03/16 06:06:38;;;;;;;1.90;1.60;;;21.80;38.90;;;;;;5077959;28;20474;-61
2022/03/16 06:09:04;;;;;;;2.65;1.70;;;21.90;38.80;;;;;;5096134;28;20478;-61
2022/03/16 06:11:30;;;;;;;2.25;1.73;;;21.90;38.60;;;;;;5095784;28;20032;-59
2022/03/16 06:13:56;;;;;;;1.95;1.50;;;21.90;38.60;;;;;;5077554;28;20020;-62
2022/03/16 06:16:21;;;;;;;1.70;1.60;;;22.00;38.60;;;;;;5095887;28;20004;-61
2022/03/16 06:18:48;;;;;;;5.10;1.60;;;22.00;38.50;;;;;;5095624;28;20132;-61
2022/03/16 06:21:14;;;;;;;2.63;1.90;;;22.00;38.50;;;;;;5077678;28;20028;-62
2022/03/16 06:23:40;;;;;;;1.88;1.45;;;22.00;38.50;;;;;;5095894;28;20008;-61
2022/03/16 06:26:06;;;;;;;2.40;1.70;;;22.00;38.40;;;;;;5095722;28;20521;-61
2022/03/16 06:28:32;;;;;;;2.30;1.63;;;22.10;38.50;;;;;;5095365;28;20466;-61
2022/03/16 06:30:58;;;;;;;1.90;1.60;;;22.00;38.40;;;;;;5095817;28;20034;-62
2022/03/16 06:33:24;;;;;;;2.05;1.50;;;22.10;38.50;;;;;;5095607;28;20414;-62
2022/03/16 06:35:50;;;;;;;2.45;1.73;;;22.10;38.50;;;;;;5077397;28;20541;-61
2022/03/16 06:38:15;;;;;;;2.30;1.80;;;22.10;38.50;;;;;;5077170;28;20374;-59
2022/03/16 06:40:42;;;;;;;2.50;1.63;;;22.10;38.40;;;;;;5077514;28;20032;-60
2022/03/16 06:43:08;;;;;;;2.38;1.85;;;22.10;38.40;;;;;;5095128;28;20024;-66
2022/03/16 06:45:34;;;;;;;2.65;1.50;;;22.10;38.40;;;;;;5095386;28;20024;-62
2022/03/16 06:48:00;;;;;;;2.35;1.73;;;22.10;38.40;;;;;;5095563;28;20416;-61
2022/03/16 06:50:26;;;;;;;1.45;1.35;;;22.20;38.40;;;;;;5076997;28;20484;-61
2022/03/16 06:52:55;;;;;;;1.83;1.50;;;22.10;38.50;;;;;;5094819;28;20016;-61
2022/03/16 06:55:21;;;;;;;1.80;1.55;;;22.10;38.50;;;;;;5094874;28;20073;-61
2022/03/16 06:57:47;;;;;;;2.10;1.80;;;22.00;38.50;;;;;;5094458;28;20016;-62
2022/03/16 07:00:14;;;;;;;3.92;1.65;;;22.10;38.60;;;;;;5076272;28;20020;-60
2022/03/16 07:03:07;;;;;;;1.38;1.25;;;22.00;38.60;;;;;;5093936;28;20020;-62
2022/03/16 07:05:34;;;;;;;6.03;1.70;;;22.00;38.60;;;;;;5094470;28;20016;-61
2022/03/16 07:08:02;;;;;;;2.80;2.00;;;22.00;38.60;;;;;;5059775;28;20039;-61
2022/03/16 07:10:28;;;;;;;1.70;1.55;;;22.00;38.70;;;;;;5094365;28;20020;-63
2022/03/16 07:12:54;;;;;;;2.22;1.70;;;22.00;38.70;;;;;;5076190;28;20032;-62
2022/03/16 07:15:20;;;;;;;1.70;1.48;;;22.00;38.60;;;;;;5076067;28;20016;-62
2022/03/16 07:17:48;;;;;;;1.92;1.60;;;22.00;38.60;;;;;;5075488;28;20040;-62
2022/03/16 07:20:15;;;;;;;1.95;1.50;;;22.00;38.60;;;;;;5075336;28;20097;-61
2022/03/16 07:22:43;;;;;;;6.43;2.92;;;22.00;38.70;;;;;;5074804;28;20407;-61
2022/03/16 07:25:11;;;;;;;9.75;3.67;;;22.00;40.00;;;;;;5074679;28;20061;-61
2022/03/16 07:27:38;;;;;;;12.13;4.75;;;22.00;39.80;;;;;;5093171;28;20024;-61
2022/03/16 07:30:06;;;;;;;10.23;5.15;;;21.90;40.30;;;;;;5074877;28;20048;-60
2022/03/16 07:32:32;;;;;;;20.95;5.35;;;21.90;40.30;;;;;;5075106;28;20061;-61
2022/03/16 07:34:58;;;;;;;12.57;6.05;;;21.90;40.20;;;;;;5093189;28;20022;-60
2022/03/16 07:37:24;;;;;;;13.90;6.45;;;21.90;40.00;;;;;;5075142;28;20024;-60
2022/03/16 07:39:50;;;;;;;8.25;6.40;;;22.00;39.70;;;;;;5093525;28;20099;-60
2022/03/16 07:42:16;;;;;;;7.97;6.25;;;22.00;39.10;;;;;;5093344;28;20016;-61
2022/03/16 07:44:42;;;;;;;9.77;6.28;;;22.10;38.60;;;;;;5092956;28;20074;-60
2022/03/16 07:47:08;;;;;;;7.95;6.45;;;22.20;38.20;;;;;;5074792;28;20176;-61
2022/03/16 07:49:37;;;;;;;11.40;6.13;;;22.30;38.60;;;;;;5093182;28;20131;-61
2022/03/16 07:52:03;;;;;;;10.05;6.03;;;22.30;37.90;;;;;;5092425;28;20080;-61
2022/03/16 07:54:29;;;;;;;11.93;6.22;;;22.30;37.80;;;;;;5074647;28;20016;-59
2022/03/16 07:56:56;;;;;;;10.48;5.95;;;22.40;38.00;;;;;;5092747;28;20008;-59
2022/03/16 07:59:22;;;;;;;11.75;6.78;;;22.40;38.20;;;;;;5093228;28;20035;-61
2022/03/16 08:01:50;;;;;;;8.70;6.10;;;22.30;37.40;;;;;;5093023;28;20020;-61
2022/03/16 08:04:16;;;;;;;6.60;5.60;;;22.40;37.30;;;;;;5092964;28;20023;-61
2022/03/16 08:06:43;;;;;;;7.78;5.57;;;22.40;37.40;;;;;;5092824;28;20052;-59
2022/03/16 08:09:09;;;;;;;6.85;5.28;;;22.50;37.40;;;;;;5075027;28;20063;-59
2022/03/16 08:11:37;;;;;;;12.23;5.50;;;22.50;37.20;;;;;;5073838;28;20024;-60
2022/03/16 08:14:04;;;;;;;10.65;5.05;;;22.50;37.10;;;;;;5092625;28;20048;-68
2022/03/16 08:16:30;;;;;;;8.80;7.30;;;22.20;37.50;;;;;;5072060;28;20050;-66
2022/03/16 08:18:56;;;;;;;19.17;8.18;;;21.60;37.50;;;;;;5092405;28;20462;-65
2022/03/16 08:21:22;;;;;;;13.77;8.70;;;20.70;39.00;;;;;;5092653;28;20073;-66
2022/03/16 08:23:49;;;;;;;17.95;8.52;;;20.30;39.40;;;;;;5092690;28;20577;-66
2022/03/16 08:26:16;;;;;;;12.95;9.43;;;19.50;40.40;;;;;;5092541;28;20091;-65
2022/03/16 08:28:42;;;;;;;11.50;9.23;;;18.70;42.00;;;;;;5074883;28;20020;-60
2022/03/16 08:31:08;;;;;;;13.70;10.07;;;18.10;43.30;;;;;;5092682;28;20020;-59
2022/03/16 08:33:34;;;;;;;12.82;9.65;;;17.50;44.40;;;;;;5092771;28;20020;-60
2022/03/16 08:36:01;;;;;;;10.38;9.25;;;17.90;44.40;;;;;;5092815;28;20008;-59
2022/03/16 08:38:30;;;;;;;13.90;8.80;;;17.80;44.30;;;;;;5092352;28;20085;-60
2022/03/16 08:40:56;;;;;;;12.40;9.63;;;17.60;45.50;;;;;;5092448;28;20039;-59
2022/03/16 08:43:24;;;;;;;10.48;8.20;;;17.50;45.80;;;;;;5092413;28;20027;-60
2022/03/16 08:45:50;;;;;;;11.80;8.55;;;18.00;45.70;;;;;;5092727;28;20016;-61
2022/03/16 08:48:18;;;;;;;15.85;8.32;;;18.00;45.30;;;;;;5092423;28;20027;-61
2022/03/16 08:50:44;;;;;;;12.65;8.30;;;18.30;44.60;;;;;;5092455;28;20281;-60
2022/03/16 08:53:10;;;;;;;10.27;8.52;;;18.50;44.20;;;;;;5092114;28;20386;-59
2022/03/16 08:55:37;;;;;;;11.02;8.82;;;18.40;43.80;;;;;;5073866;28;20028;-60
2022/03/16 08:58:03;;;;;;;11.93;8.57;;;18.30;45.00;;;;;;5092000;28;20028;-59
2022/03/16 09:00:29;;;;;;;9.70;7.32;;;18.40;44.40;;;;;;5091987;28;20016;-59
2022/03/16 09:02:56;;;;;;;17.77;8.32;;;18.60;44.10;;;;;;5092258;28;20036;-60
2022/03/16 09:05:23;;;;;;;9.48;7.38;;;18.90;43.70;;;;;;5092214;28;20039;-60
2022/03/16 09:07:50;;;;;;;11.98;7.07;;;19.00;43.20;;;;;;5074969;28;20063;-60
2022/03/16 09:10:16;;;;;;;10.85;6.68;;;19.20;42.80;;;;;;5074724;28;20016;-61
2022/03/16 09:12:42;;;;;;;7.13;6.13;;;19.40;42.50;;;;;;5092539;28;20024;-60
2022/03/16 09:15:08;;;;;;;10.65;6.30;;;19.40;42.20;;;;;;5092396;28;20020;-60
2022/03/16 09:17:35;;;;;;;11.38;5.70;;;19.50;42.00;;;;;;5092026;28;20445;-59
2022/03/16 09:20:02;;;;;;;21.83;7.35;;;19.60;42.00;;;;;;5092260;28;20057;-59
2022/03/16 09:22:28;;;;;;;9.90;7.57;;;19.40;45.00;;;;;;5092174;28;20408;-61
2022/03/16 09:24:56;;;;;;;14.43;7.85;;;19.60;45.80;;;;;;5092425;28;20106;-60
2022/03/16 09:27:25;;;;;;;18.85;7.22;;;19.90;46.40;;;;;;5096106;28;20020;-60
2022/03/16 09:29:51;;;;;;;12.45;7.28;;;20.10;47.00;;;;;;5096603;28;20038;-59
2022/03/16 09:32:18;;;;;;;14.52;7.85;;;20.20;47.20;;;;;;5095843;28;20016;-59
2022/03/16 09:34:44;;;;;;;17.40;7.20;;;20.40;47.70;;;;;;5077750;28;20413;-62
2022/03/16 09:37:10;;;;;;;13.85;7.00;;;20.60;48.00;;;;;;5095686;28;20012;-62
2022/03/16 09:39:37;;;;;;;11.65;6.47;;;20.70;47.50;;;;;;5096025;28;20016;-60
2022/03/16 09:42:04;;;;;;;15.23;6.35;;;20.80;47.90;;;;;;5077691;28;20027;-60
2022/03/16 09:44:33;;;;;;;11.05;6.70;;;20.80;48.10;;;;;;5077498;28;20020;-60
2022/03/16 09:46:59;;;;;;;17.10;6.72;;;20.90;47.90;;;;;;5095839;28;20016;-60
2022/03/16 09:49:28;;;;;;;9.13;6.55;;;21.00;47.90;;;;;;5095562;28;20465;-60
2022/03/16 09:51:55;;;;;;;10.82;6.38;;;21.10;48.40;;;;;;5095092;28;20016;-61
2022/03/16 09:54:21;;;;;;;12.90;6.93;;;21.10;48.00;;;;;;5076991;28;20028;-60
2022/03/16 09:56:50;;;;;;;14.90;6.88;;;21.20;48.20;;;;;;5095204;28;20016;-59
2022/03/16 09:59:16;;;;;;;12.45;5.80;;;21.20;48.40;;;;;;5077810;28;20070;-60
2022/03/16 10:01:43;;;;;;;17.63;6.35;;;21.20;49.10;;;;;;5095375;28;20012;-59
2022/03/16 10:04:09;;;;;;;15.40;6.60;;;21.30;48.90;;;;;;5095109;28;20015;-60
2022/03/16 10:06:35;;;;;;;11.85;6.70;;;21.30;48.80;;;;;;5077248;28;20019;-61
2022/03/16 10:15:03;;;;;;;18.48;7.80;;;20.80;46.20;;;;;;5095819;28;20452;-60
2022/03/16 10:17:44;;;;;;;;;;;20.70;46.50;;;;;;5095225;28;20451;-61
2022/03/16 10:20:23;;;;;;;;;;;20.70;46.60;;;;;;5096347;28;19919;-62
2022/03/16 10:23:14;;;;;;;13.88;7.75;;;20.70;45.10;;;;;;5095183;28;20357;-60
2022/03/16 10:25:41;;;;;;;10.02;8.43;;;20.70;44.50;;;;;;5077751;28;20020;-61
2022/03/16 10:28:23;;;;;;;18.90;8.02;;;20.70;44.60;;;;;;5095608;28;20016;-60
2022/03/16 10:30:53;;;;;;;16.73;8.48;;;20.70;44.80;;;;;;5095268;28;20167;-60
2022/03/16 10:33:19;;;;;;;13.40;8.27;;;20.70;44.80;;;;;;5095439;28;20028;-61
2022/03/16 10:36:05;;;;;;;11.02;8.13;;;20.80;44.20;;;;;;5094964;28;20016;-60
2022/03/16 10:38:36;;;;;;;12.48;8.07;;;20.80;44.50;;;;;;5093685;28;20023;-59
2022/03/16 10:46:34;;;;;;;18.63;7.78;;;20.80;44.00;;;;;;5094850;28;20120;-60
2022/03/16 10:46:46;;;;;;;12.48;8.15;;;21.00;43.90;;;;;;5094986;28;20124;-59
2022/03/16 10:49:15;;;;;;;11.90;9.07;;;21.00;43.90;;;;;;5077020;28;20039;-61
2022/03/16 10:51:41;;;;;;;12.38;7.47;;;21.10;43.50;;;;;;5095468;28;20016;-60
2022/03/16 10:54:07;;;;;;;15.55;8.60;;;21.10;43.60;;;;;;5076805;28;20085;-59
2022/03/16 10:56:34;;;;;;;13.73;8.00;;;21.10;43.30;;;;;;5094498;28;20100;-59
2022/03/16 10:59:00;;;;;;;15.70;8.25;;;21.10;43.20;;;;;;5094571;28;20020;-61
2022/03/16 11:01:27;;;;;;;20.67;7.95;;;21.20;43.70;;;;;;5076841;28;20027;-61
2022/03/16 11:03:55;;;;;;;15.23;7.88;;;21.10;43.40;;;;;;5094543;28;20068;-62
2022/03/16 11:06:21;;;;;;;17.85;7.05;;;21.10;43.40;;;;;;5094742;28;20085;-61
2022/03/16 11:08:48;;;;;;;14.88;6.53;;;21.00;43.30;;;;;;5095090;28;20013;-62
2022/03/16 11:13:59;;;;;;;10.55;6.10;;;21.00;43.20;;;;;;5095489;28;20571;-61
2022/03/16 11:16:25;;;;;;;11.52;4.97;;;21.00;43.10;;;;;;5076943;28;20013;-61
2022/03/16 11:18:51;;;;;;;10.88;5.00;;;21.00;43.20;;;;;;5095439;28;20413;-62
2022/03/16 11:21:21;;;;;;;15.00;4.88;;;21.00;43.10;;;;;;5095976;28;20012;-62
2022/03/16 11:27:13;;;;;;;12.18;4.40;;;20.90;43.10;;;;;;5095732;28;20084;-62
2022/03/16 11:29:44;;;;;;;9.20;4.45;;;20.90;43.20;;;;;;5095744;28;20057;-62
2022/03/16 11:32:13;;;;;;;9.07;4.55;;;20.80;43.20;;;;;;5095263;28;20027;-61
2022/03/16 11:34:45;;;;;;;7.72;4.30;;;20.80;43.30;;;;;;5095274;28;20032;-61
2022/03/16 11:37:12;;;;;;;7.85;3.88;;;20.80;43.30;;;;;;5077893;28;20012;-61
2022/03/16 11:39:44;;;;;;;9.70;4.13;;;20.80;43.20;;;;;;5094802;28;20042;-61
2022/03/16 11:42:11;;;;;;;10.32;4.00;;;20.70;43.20;;;;;;5076774;28;20012;-61
2022/03/16 11:44:38;;;;;;;7.60;3.97;;;20.70;43.30;;;;;;5095053;28;20031;-61
2022/03/16 11:47:10;;;;;;;8.98;4.10;;;20.70;43.30;;;;;;5095233;28;20024;-61
2022/03/16 11:49:45;;;;;;;12.02;3.65;;;20.70;43.40;;;;;;5094506;28;20157;-62
2022/03/16 11:52:11;;;;;;;7.95;3.85;;;20.60;43.40;;;;;;5094762;28;20019;-61
2022/03/16 11:54:41;;;;;;;6.25;3.67;;;20.60;43.40;;;;;;5076866;28;20483;-62
2022/03/16 11:57:07;;;;;;;8.17;4.13;;;20.60;43.40;;;;;;5094925;28;20008;-62
2022/03/16 11:59:34;;;;;;;7.25;3.72;;;20.60;43.40;;;;;;5094487;28;20031;-61
2022/03/16 12:02:22;;;;;;;6.60;3.35;;;20.50;43.40;;;;;;5094028;28;20013;-61
2022/03/16 12:04:49;;;;;;;10.05;3.90;;;20.50;43.50;;;;;;5094320;28;20018;-62
2022/03/16 12:07:22;;;;;;;4.30;3.53;;;20.50;43.50;;;;;;5094461;28;20016;-61
2022/03/16 12:09:52;;;;;;;8.18;3.50;;;20.40;43.50;;;;;;5094174;28;20012;-61
2022/03/16 12:15:12;;;;;;;7.50;3.28;;;20.40;43.50;;;;;;5094380;28;20254;-61
2022/03/16 12:17:54;;;;;;;8.93;3.63;;;20.50;44.10;;;;;;5094303;28;20032;-60
2022/03/16 12:20:25;;;;;;;7.95;3.13;;;20.40;43.70;;;;;;5094104;28;20158;-61
2022/03/16 12:22:55;;;;;;;8.68;3.90;;;20.40;43.70;;;;;;5094494;28;20500;-61
2022/03/16 12:25:27;;;;;;;5.70;3.78;;;20.40;43.70;;;;;;5094010;28;20020;-61
2022/03/16 12:30:46;;;;;;;9.07;3.60;;;20.30;43.80;;;;;;5094018;28;20031;-61
2022/03/16 12:33:22;;;;;;;6.50;2.97;;;20.30;43.80;;;;;;5093761;28;20508;-62
2022/03/16 12:36:00;;;;;;;6.78;3.38;;;20.30;43.70;;;;;;5093742;28;20023;-61
2022/03/16 12:38:29;;;;;;;7.95;3.85;;;20.30;43.80;;;;;;5076851;28;20036;-60
2022/03/16 12:43:42;;;;;;;5.53;3.25;;;20.20;43.80;;;;;;5094107;28;20039;-61
2022/03/16 12:46:29;;;;;;;7.18;4.05;;;20.30;43.90;;;;;;5093776;28;20016;-63
2022/03/16 12:49:01;;;;;;;3.97;3.25;;;20.20;43.90;;;;;;5093664;28;20058;-61
2022/03/16 12:51:44;;;;;;;8.23;3.53;;;20.30;43.90;;;;;;5093674;28;20020;-61
2022/03/16 12:54:20;;;;;;;6.05;3.60;;;20.20;43.90;;;;;;5093387;28;20032;-62
2022/03/16 12:56:50;;;;;;;11.60;3.95;;;20.30;44.00;;;;;;5094026;28;20072;-61
2022/03/16 12:59:45;;;;;;;4.82;3.42;;;20.20;44.00;;;;;;5094011;28;20008;-61
2022/03/16 13:02:11;;;;;;;7.45;3.20;;;20.20;44.10;;;;;;5087262;28;20031;-61
2022/03/16 13:04:37;;;;;;;5.90;3.63;;;20.20;44.10;;;;;;5093499;28;20016;-61
2022/03/16 13:07:03;;;;;;;5.55;3.45;;;20.20;44.20;;;;;;5075791;28;20402;-60
2022/03/16 13:09:31;;;;;;;7.35;3.60;;;20.20;44.20;;;;;;5093244;28;20476;-60